createdAt,value
2022-10-23T00:01:28.215Z,7.3
2022-10-23T00:06:26.315Z,7.3
2022-10-23T00:11:24.370Z,7.3
2022-10-23T00:16:22.347Z,7.4
2022-10-23T00:21:20.304Z,7.4
2022-10-23T00:26:18.339Z,7.4
2022-10-23T00:31:16.500Z,7.5
2022-10-23T00:36:14.778Z,7.6
2022-10-23T00:41:12.985Z,7.6
2022-10-23T00:46:11.191Z,7.6
2022-10-23T00:51:09.391Z,7.3
2022-10-23T00:56:07.534Z,7.4
2022-10-23T01:01:05.742Z,7.4
2022-10-23T01:06:03.679Z,7.4
2022-10-23T01:11:01.775Z,7.5
2022-10-23T01:15:59.989Z,7.5
2022-10-23T01:20:57.751Z,7.4
2022-10-23T01:25:55.701Z,7.4
2022-10-23T01:30:53.922Z,7.6
2022-10-23T01:35:52.166Z,8
2022-10-23T01:40:50.667Z,8.4
2022-10-23T01:45:49.243Z,8.6
2022-10-23T01:50:48.240Z,8.8
2022-10-23T01:55:46.000Z,9
2022-10-23T02:00:44.418Z,9.2
2022-10-23T02:05:42.625Z,9.4
2022-10-23T02:10:40.911Z,9.3
2022-10-23T02:15:38.930Z,9.4
2022-10-23T02:20:37.216Z,9.6
2022-10-23T02:25:36.401Z,9.7
2022-10-23T02:30:34.393Z,9.6
2022-10-23T02:35:32.689Z,9.7
2022-10-23T02:40:31.057Z,9.9
2022-10-23T02:45:29.334Z,9.9
2022-10-23T02:50:27.412Z,9.7
2022-10-23T02:55:25.523Z,9.8
2022-10-23T03:00:23.578Z,9.7
2022-10-23T03:05:21.507Z,9.7
2022-10-23T03:10:19.708Z,9.8
2022-10-23T03:15:17.910Z,9.9
2022-10-23T03:20:16.007Z,9.9
2022-10-23T03:25:14.159Z,9.6
2022-10-23T03:30:12.208Z,9.4
2022-10-23T03:35:09.951Z,8.6
2022-10-23T03:40:07.720Z,8.1
2022-10-23T03:45:05.598Z,7.9
2022-10-23T03:50:03.644Z,7.5
2022-10-23T03:55:01.444Z,7.3
2022-10-23T03:59:59.790Z,7.3
2022-10-23T04:04:57.854Z,7.2
2022-10-23T04:09:55.873Z,6.9
2022-10-23T04:14:53.868Z,7
2022-10-23T04:19:52.152Z,7.1
2022-10-23T04:24:50.582Z,7.1
2022-10-23T04:29:48.700Z,7
2022-10-23T04:34:46.805Z,6.9
2022-10-23T04:39:44.655Z,6.9
2022-10-23T04:44:42.756Z,6.7
2022-10-23T04:49:40.877Z,6.6
2022-10-23T04:54:38.817Z,6.5
2022-10-23T04:59:36.596Z,6.4
2022-10-23T05:04:34.837Z,6.5
2022-10-23T05:09:33.145Z,6.7
2022-10-23T05:14:31.355Z,7
2022-10-23T05:19:29.710Z,7.3
2022-10-23T05:24:28.435Z,7.5
2022-10-23T05:29:26.951Z,7.8
2022-10-23T05:34:25.081Z,8
2022-10-23T05:39:23.462Z,8.3
2022-10-23T05:44:23.175Z,11.2
2022-10-23T05:49:25.972Z,15
2022-10-23T05:54:26.415Z,17.6
2022-10-23T05:59:27.152Z,20.3
2022-10-23T06:04:27.106Z,22.1
2022-10-23T06:09:26.744Z,24
2022-10-23T06:14:26.711Z,25.8
2022-10-23T06:19:26.305Z,27.5
2022-10-23T06:24:25.941Z,28.9
2022-10-23T06:29:24.739Z,29
2022-10-23T06:34:23.635Z,29.5
2022-10-23T06:39:22.197Z,30.1
2022-10-23T06:44:20.914Z,31.1
2022-10-23T06:49:19.841Z,31.7
2022-10-23T06:54:18.929Z,32.7
2022-10-23T06:59:17.323Z,32.9
2022-10-23T07:04:15.618Z,33.3
2022-10-23T07:09:13.616Z,33.6
2022-10-23T07:14:12.156Z,33.8
2022-10-23T07:19:10.797Z,34.5
2022-10-23T07:24:09.617Z,35.7
2022-10-23T07:29:08.240Z,36
2022-10-23T07:34:06.892Z,36.7
2022-10-23T07:39:05.158Z,37
2022-10-23T07:44:03.612Z,37.5
2022-10-23T07:49:02.357Z,38.7
2022-10-23T07:54:01.022Z,38.9
2022-10-23T07:58:59.790Z,39.8
2022-10-23T08:03:58.386Z,40
2022-10-23T08:08:56.689Z,40.7
2022-10-23T08:13:55.107Z,41.1
2022-10-23T08:18:53.644Z,41
2022-10-23T08:23:51.071Z,41.2
2022-10-23T08:28:49.108Z,41.2
2022-10-23T08:38:45.766Z,41.9
2022-10-23T08:43:43.771Z,42
2022-10-23T08:48:42.066Z,42.9
2022-10-23T08:53:39.678Z,42.6
2022-10-23T08:58:37.727Z,42.5
2022-10-23T09:03:35.508Z,41.8
2022-10-23T09:08:33.455Z,41.7
2022-10-23T09:13:31.055Z,41.7
2022-10-23T09:18:28.987Z,41.1
2022-10-23T09:23:27.555Z,42
2022-10-23T09:28:25.796Z,42.1
2022-10-23T09:33:24.056Z,42.5
2022-10-23T09:38:22.068Z,42.2
2022-10-23T09:43:18.926Z,42.2
2022-10-23T09:48:17.434Z,42.8
2022-10-23T09:53:16.083Z,43.5
2022-10-23T09:58:13.844Z,43
2022-10-23T10:03:11.756Z,42.8
2022-10-23T10:08:09.420Z,42.6
2022-10-23T10:13:09.968Z,42.7
2022-10-23T10:18:06.274Z,43.2
2022-10-23T10:23:04.421Z,43.4
2022-10-23T10:28:02.836Z,43.3
2022-10-23T10:33:00.830Z,42.8
2022-10-23T10:37:58.848Z,43
2022-10-23T10:42:57.075Z,43.4
2022-10-23T10:47:55.472Z,43.4
2022-10-23T10:52:53.113Z,43
2022-10-23T10:57:50.807Z,42.4
2022-10-23T11:02:47.731Z,41.4
2022-10-23T11:07:45.676Z,41.1
2022-10-23T11:12:42.420Z,39.6
2022-10-23T11:17:36.417Z,37.6
2022-10-23T11:22:34.538Z,37.7
2022-10-23T11:27:32.009Z,36.9
2022-10-23T11:32:29.540Z,36
2022-10-23T11:37:27.158Z,36.4
2022-10-23T11:42:23.927Z,36.9
2022-10-23T11:47:21.820Z,36.1
2022-10-23T11:52:19.991Z,36.5
2022-10-23T11:57:17.691Z,35.8
2022-10-23T12:02:15.226Z,35.6
2022-10-23T12:07:13.103Z,34.9
2022-10-23T12:12:09.769Z,33
2022-10-23T12:17:07.824Z,33.1
2022-10-23T12:22:05.017Z,32.1
2022-10-23T12:27:03.048Z,32.4
2022-10-23T12:32:01.392Z,33.2
2022-10-23T12:36:59.134Z,32.6
2022-10-23T12:41:57.023Z,31.6
2022-10-23T12:46:54.734Z,31.2
2022-10-23T12:51:52.249Z,30.2
2022-10-23T12:56:49.757Z,29.2
2022-10-23T13:01:51.795Z,28.3
2022-10-23T13:06:44.107Z,26.9
2022-10-23T13:11:41.687Z,26.3
2022-10-23T13:16:39.906Z,26.3
2022-10-23T13:21:38.034Z,25.8
2022-10-23T13:26:34.968Z,24.4
2022-10-23T13:31:32.171Z,23.4
2022-10-23T13:36:29.806Z,22.6
2022-10-23T13:41:27.704Z,22.7
2022-10-23T13:46:25.827Z,22.4
2022-10-23T13:51:23.985Z,22.1
2022-10-23T13:56:21.871Z,21.9
2022-10-23T14:01:19.958Z,21.8
2022-10-23T14:06:17.960Z,21.5
2022-10-23T14:11:15.945Z,21.5
2022-10-23T14:16:13.793Z,21.4
2022-10-23T14:21:11.603Z,21
2022-10-23T14:26:09.522Z,20.7
2022-10-23T14:31:07.440Z,20.4
2022-10-23T14:36:05.481Z,20.1
2022-10-23T14:41:03.166Z,19.9
2022-10-23T14:46:01.263Z,19.5
2022-10-23T14:50:59.564Z,19
2022-10-23T14:55:57.414Z,18.5
2022-10-23T15:00:55.237Z,18.1
2022-10-23T15:05:52.883Z,17.6
2022-10-23T15:10:50.495Z,17
2022-10-23T15:15:48.027Z,16.5
2022-10-23T15:20:45.738Z,16.1
2022-10-23T15:25:43.336Z,15.6
2022-10-23T15:30:41.011Z,15.3
2022-10-23T15:35:38.721Z,14.9
2022-10-23T15:40:36.787Z,14.6
2022-10-23T15:45:34.572Z,14.3
2022-10-23T15:50:32.469Z,14.1
2022-10-23T15:55:30.237Z,13.8
2022-10-23T16:00:28.092Z,13.6
2022-10-23T16:05:25.956Z,13.4
2022-10-23T16:10:23.984Z,13.2
2022-10-23T16:15:21.683Z,12.8
2022-10-23T16:20:19.521Z,12.8
2022-10-23T16:25:17.541Z,12.6
2022-10-23T16:30:15.574Z,12.5
2022-10-23T16:35:13.662Z,12.3
2022-10-23T16:40:11.622Z,12.1
2022-10-23T16:45:09.829Z,11.9
2022-10-23T16:50:07.876Z,11.8
2022-10-23T16:55:05.825Z,11.6
2022-10-23T17:00:03.810Z,11.5
2022-10-23T17:05:04.101Z,11.3
2022-10-23T17:10:03.371Z,11.1
2022-10-23T17:15:01.308Z,11.1
2022-10-23T17:19:59.266Z,11
2022-10-23T17:24:57.452Z,10.8
2022-10-23T17:29:55.764Z,10.8
2022-10-23T17:34:53.987Z,10.7
2022-10-23T17:39:52.295Z,10.6
2022-10-23T17:44:50.442Z,10.5
2022-10-23T17:49:48.428Z,10.4
2022-10-23T17:54:46.516Z,10.4
2022-10-23T17:59:44.855Z,10.3
2022-10-23T18:04:43.112Z,10.3
2022-10-23T18:09:41.232Z,10.2
2022-10-23T18:14:39.805Z,10.1
2022-10-23T18:19:37.973Z,10.1
2022-10-23T18:24:36.231Z,10.1
2022-10-23T18:29:34.264Z,10.1
2022-10-23T18:34:32.333Z,10
2022-10-23T18:39:30.759Z,10.1
2022-10-23T18:44:29.398Z,10.1
2022-10-23T18:49:27.561Z,9.9
2022-10-23T18:54:25.518Z,9.9
2022-10-23T18:59:23.575Z,9.4
2022-10-23T19:04:21.754Z,9.9
2022-10-23T19:09:19.800Z,9.9
2022-10-23T19:14:17.792Z,9.8
2022-10-23T19:19:15.814Z,9.8
2022-10-23T19:24:14.042Z,9.8
2022-10-23T19:29:11.998Z,9.6
2022-10-23T19:34:10.091Z,9.5
2022-10-23T19:39:08.154Z,9.5
2022-10-23T19:44:06.247Z,9.4
2022-10-23T19:49:04.341Z,9.3
2022-10-23T19:54:02.321Z,9.3
2022-10-23T19:59:00.517Z,9.3
2022-10-23T20:03:58.704Z,9.2
2022-10-23T20:08:56.844Z,9.2
2022-10-23T20:13:55.000Z,9.1
2022-10-23T20:18:53.276Z,9.1
2022-10-23T20:23:51.462Z,9
2022-10-23T20:28:49.520Z,9
2022-10-23T20:33:47.329Z,8.9
2022-10-23T20:38:45.447Z,8.9
2022-10-23T20:43:43.418Z,8.9
2022-10-23T20:48:41.598Z,8.7
2022-10-23T20:53:39.421Z,8.6
2022-10-23T20:58:37.162Z,8.6
2022-10-23T21:03:35.361Z,8.4
2022-10-23T21:08:33.421Z,8.5
2022-10-23T21:13:31.501Z,8.4
2022-10-23T21:18:44.786Z,8.4
2022-10-23T21:23:27.838Z,8.4
2022-10-23T21:28:26.035Z,8.3
2022-10-23T21:33:24.278Z,8.3
2022-10-23T21:38:22.317Z,8.3
2022-10-23T21:43:20.514Z,8.3
2022-10-23T21:48:18.416Z,8.3
2022-10-23T21:53:16.551Z,8.2
2022-10-23T21:58:14.670Z,8.2
2022-10-23T22:03:12.662Z,8.1
2022-10-23T22:08:10.956Z,8.2
2022-10-23T22:13:09.029Z,8.2
2022-10-23T22:18:07.270Z,8.1
2022-10-23T22:23:05.605Z,8.1
2022-10-23T22:28:04.111Z,8.1
2022-10-23T22:33:02.331Z,7.9
2022-10-23T22:38:00.867Z,8
2022-10-23T22:42:58.881Z,7.9
2022-10-23T22:47:57.357Z,7.9
2022-10-23T22:52:55.527Z,7.9
2022-10-23T22:57:53.655Z,7.7
2022-10-23T23:02:51.774Z,7.6
2022-10-23T23:07:49.795Z,7.7
2022-10-23T23:12:48.020Z,7.5
2022-10-23T23:17:46.240Z,7.6
2022-10-23T23:22:44.478Z,7.8
2022-10-23T23:27:42.632Z,8.3
2022-10-23T23:32:41.351Z,8.6
2022-10-23T23:37:39.505Z,8.4
2022-10-23T23:42:37.568Z,8.2
2022-10-23T23:47:35.477Z,7.9
2022-10-23T23:52:33.550Z,7.7
2022-10-23T23:57:31.824Z,7.6
